Latest Weather Observations for Port Macquarie Airport

IDN60801

Issued at 5:05 pm EDT Saturday 25 October 2014 (issued every 30 minutes, with the page automatically refreshed every 10 minutes)

About weather observations | Map of weather stations | Latest weather observations for NSW | Other Formats
Station Details ID: 060139 Name: PORT MACQUARIE AIRPORT AWS Lat: -31.43 Lon: 152.87 Height: 4.2 m
Data from the previous 72 hours. | See also: Recent months at Port Macquarie Airport
Date/Time
EDT
Temp
°C
App
Temp
°C
Dew
Point
Rel
Hum
%
Delta-T
°C
Wind Press
QNH
hPa
Press
MSL
hPa
Rain
since 9 am
mm
Dir
 
Spd
km/h
Gust
km/h
Spd
kts
Gust
kts
25/05:00pm 27.5 25.6 13.1 41 8.5 E 15 19 8 10 1012.9 1012.9 0.0
25/04:30pm 27.6 25.8 13.2 41 8.5 ENE 15 20 8 11 1012.9 1012.9 0.0
25/04:00pm 27.5 26.1 13.4 41 8.3 ENE 13 19 7 10 1012.9 1012.9 0.0
25/03:30pm 27.1 25.5 13.8 44 7.9 ENE 15 20 8 11 1013.0 1013.0 0.0
25/03:00pm 27.2 25.3 14.2 44 7.8 E 17 20 9 11 1013.2 1013.2 0.0
25/02:30pm 27.7 26.6 16.3 49 7.1 E 17 20 9 11 1013.5 1013.5 0.0
25/02:00pm 26.6 25.4 16.2 52 6.4 E 17 24 9 13 1013.9 1013.9 0.0
25/01:30pm 26.2 24.7 16.4 54 6.0 ENE 19 22 10 12 1014.0 1014.0 0.0
25/01:00pm 25.8 24.5 17.2 59 5.4 ENE 20 24 11 13 1014.2 1014.2 0.0
25/12:30pm 26.5 26.0 17.8 58 5.5 E 17 20 9 11 1014.4 1014.4 0.0
25/12:00pm 26.1 25.8 18.2 61 5.0 ENE 17 20 9 11 1014.7 1014.7 0.0
25/11:30am 25.5 25.6 18.4 65 4.5 E 15 19 8 10 1015.0 1015.0 0.0
25/11:00am 25.1 25.3 18.5 67 4.2 E 15 20 8 11 1015.1 1015.1 0.0
25/10:30am 24.8 25.1 18.7 69 3.9 E 15 19 8 10 1015.1 1015.1 0.0
25/10:00am 24.3 24.9 18.7 71 3.5 E 13 17 7 9 1015.2 1015.2 0.0
25/09:30am 23.9 25.5 17.9 69 3.8 N 6 9 3 5 1015.0 1015.0 0.0
25/09:00am 22.6 22.8 17.7 74 3.0 N 13 19 7 10 1014.8 1014.8 0.4
25/08:30am 21.1 20.8 17.3 79 2.3 N 15 20 8 11 1014.8 1014.8 0.4
25/08:00am 20.0 19.2 17.2 84 1.7 N 17 20 9 11 1015.0 1015.0 0.4
25/07:30am 18.8 17.9 16.8 88 1.2 N 17 20 9 11 1014.9 1014.9 0.4
25/07:00am 18.3 18.1 16.8 91 0.9 N 13 17 7 9 1014.8 1014.8 0.4
25/06:30am 18.0 17.9 16.9 93 0.7 N 13 19 7 10 1014.6 1014.6 0.4
25/06:00am 18.0 17.5 16.9 93 0.7 N 15 20 8 11 1014.6 1014.6 0.4
25/05:30am 18.0 17.4 16.7 92 0.8 N 15 20 8 11 1014.6 1014.6 0.4
25/05:00am 18.1 17.9 16.8 92 0.8 N 13 15 7 8 1014.6 1014.6 0.4
25/04:30am 18.2 18.8 16.9 92 0.8 N 9 11 5 6 1014.6 1014.6 0.4
25/04:00am 18.2 18.4 16.7 91 0.9 N 11 15 6 8 1014.4 1014.4 0.4
25/03:30am 18.5 18.3 16.8 90 1.0 N 13 19 7 10 1014.7 1014.7 0.4
25/03:00am 18.8 18.8 17.1 90 1.0 NNE 13 19 7 10 1014.9 1014.9 0.4
25/02:30am 18.5 19.3 17.3 93 0.7 NE 9 11 5 6 1015.6 1015.6 0.4
25/02:00am 18.5 19.2 17.0 91 0.9 SSE 9 13 5 7 1016.5 1016.5 0.4
25/01:30am 19.0 20.1 17.0 88 1.2 NNE 7 11 4 6 1016.1 1016.1 0.4
25/01:00am 19.2 18.3 16.8 86 1.4 NNE 17 26 9 14 1015.6 1015.6 0.2
25/12:30am 19.4 17.9 16.4 83 1.8 N 19 24 10 13 1016.1 1016.1 0.0
25/12:00am 19.5 17.9 16.5 83 1.8 N 20 26 11 14 1016.3 1016.3 0.0
 
Date/Time
EDT
Temp
°C
App
Temp
°C
Dew
Point
Rel
Hum
%
Delta-T
°C
Wind Press
QNH
hPa
Press
MSL
hPa
Rain
since 9 am
mm
Dir
 
Spd
km/h
Gust
km/h
Spd
kts
Gust
kts
24/11:30pm 19.6 18.5 16.4 82 1.9 N 17 22 9 12 1016.6 1016.6 0.0
24/11:00pm 19.8 17.5 16.6 82 1.9 N 24 32 13 17 1017.1 1017.1 0.0
24/10:30pm 19.8 17.5 16.6 82 1.9 NNE 24 33 13 18 1017.4 1017.4 0.0
24/10:00pm 20.0 18.1 16.6 81 2.0 NNE 22 30 12 16 1018.0 1018.0 0.0
24/09:30pm 19.9 18.5 16.5 81 2.0 N 19 24 10 13 1018.3 1018.3 0.0
24/09:00pm 19.8 18.4 16.6 82 1.9 N 19 26 10 14 1018.4 1018.4 0.0
24/08:30pm 19.9 18.6 16.7 82 1.9 N 19 28 10 15 1018.1 1018.1 0.0
24/08:00pm 20.1 18.8 16.7 81 2.1 N 19 28 10 15 1018.1 1018.1 0.0
24/07:30pm 20.4 19.1 16.8 80 2.2 N 19 30 10 16 1017.8 1017.8 0.0
24/07:00pm 20.9 19.2 17.1 79 2.3 NNE 22 32 12 17 1017.7 1017.7 0.0
24/06:30pm 21.5 19.0 17.1 76 2.7 NNE 26 33 14 18 1017.5 1017.5 0.0
24/06:00pm 22.2 19.4 17.3 74 3.0 NNE 28 39 15 21 1017.5 1017.5 0.0
24/05:30pm 22.7 19.6 17.4 72 3.3 NNE 30 39 16 21 1017.4 1017.4 0.0
24/05:00pm 23.1 20.0 17.6 71 3.4 NNE 30 41 16 22 1017.6 1017.6 0.0
24/04:30pm 23.2 19.8 17.6 71 3.5 NNE 32 43 17 23 1017.7 1017.7 0.0
24/04:00pm 23.5 20.8 17.5 69 3.7 NNE 28 41 15 22 1017.8 1017.8 0.0
24/03:30pm 22.4 18.7 16.9 71 3.4 NE 32 43 17 23 1017.7 1017.7 0.0
24/03:00pm 24.3 21.4 17.1 64 4.4 NE 28 41 15 22 1018.3 1018.3 0.0
24/02:30pm 24.6 21.5 16.6 61 4.9 NE 28 37 15 20 1018.6 1018.6 0.0
24/02:00pm 25.3 23.0 16.7 59 5.3 NE 24 35 13 19 1018.9 1018.9 0.0
24/01:30pm 25.6 23.4 17.0 59 5.3 NE 24 35 13 19 1019.3 1019.3 0.0
24/01:00pm 25.1 22.2 16.0 57 5.5 NE 26 35 14 19 1019.6 1019.6 0.0
24/12:30pm 25.4 23.0 16.3 57 5.6 NE 24 33 13 18 1020.0 1020.0 0.0
24/12:00pm 25.9 24.8 17.8 61 5.1 NE 20 30 11 16 1020.1 1020.1 0.0
24/11:30am 24.5 21.8 15.7 58 5.3 NNE 24 32 13 17 1020.7 1020.7 0.0
24/11:00am 23.7 20.0 16.0 62 4.7 NNE 30 39 16 21 1020.8 1020.8 0.0
24/10:30am 24.3 21.7 15.8 59 5.1 NNE 24 33 13 18 1021.2 1021.2 0.0
24/10:00am 23.6 22.0 16.1 62 4.5 NE 19 32 10 17 1021.4 1021.4 0.0
24/09:30am 23.4 23.5 17.4 69 3.7 N 13 20 7 11 1021.7 1021.7 0.0
24/09:00am 21.5 21.1 17.1 76 2.7 N 15 20 8 11 1022.1 1022.1 0.0
24/08:30am 19.3 19.3 16.3 83 1.8 N 11 17 6 9 1021.6 1021.6 0.0
24/08:00am 17.9 19.0 16.6 92 0.8 NW 6 9 3 5 1021.8 1021.8 0.0
24/07:30am 16.4 18.0 15.9 97 0.3 W 2 7 1 4 1021.5 1021.5 0.0
24/07:00am 15.0 15.3 14.5 97 0.3 WNW 6 7 3 4 1021.1 1021.1 0.0
24/06:30am 14.0 13.9 13.4 96 0.3 N 6 9 3 5 1020.6 1020.6 0.0
24/06:12am 12.6 13.1 11.7 94 0.5 CALM 0 6 0 3 1020.7 - 0.0
24/06:11am 12.6 13.1 11.7 94 0.5 CALM 0 6 0 3 1020.7 1020.7 0.0
24/06:00am 12.5 12.3 11.7 95 0.4 NW 4 6 2 3 1020.4 1020.4 0.0
24/05:50am 13.0 12.9 12.2 95 0.4 NW 4 6 2 3 1020.1 1020.1 0.0
24/05:30am 12.8 13.4 11.9 94 0.5 CALM 0 6 0 3 1019.8 1019.8 0.0
24/05:00am 13.6 14.5 13.0 96 0.3 CALM 0 0 0 0 1019.8 1019.8 0.0
24/04:41am 13.7 14.6 12.9 95 0.4 CALM 0 0 0 0 1019.6 1019.6 0.0
24/04:30am 14.1 15.2 13.5 96 0.3 CALM 0 0 0 0 1019.6 1019.6 0.0
24/04:17am 13.7 14.6 12.8 94 0.5 CALM 0 0 0 0 1019.4 1019.4 0.0
24/04:00am 13.6 14.3 12.3 92 0.7 CALM 0 0 0 0 1019.2 1019.2 0.0
24/03:30am 13.7 14.5 12.6 93 0.6 CALM 0 0 0 0 1019.3 1019.3 0.0
24/03:25am 14.0 14.8 12.7 92 0.7 CALM 0 0 0 0 1019.3 1019.3 0.0
24/03:00am 14.4 15.4 13.3 93 0.6 CALM 0 0 0 0 1019.4 1019.4 0.0
24/02:51am 14.6 15.7 13.5 93 0.6 CALM 0 0 0 0 1019.4 1019.4 0.0
24/02:30am 14.9 16.0 13.6 92 0.7 CALM 0 0 0 0 1019.5 1019.5 0.0
24/02:00am 15.8 17.3 14.7 93 0.6 CALM 0 4 0 2 1019.7 1019.7 0.0
24/01:30am 17.0 17.7 15.7 92 0.8 N 6 9 3 5 1019.8 1019.8 0.0
24/01:00am 18.2 18.9 17.0 93 0.7 NNE 9 13 5 7 1019.8 1019.8 0.0
24/12:30am 15.5 15.8 14.5 94 0.6 NE 6 13 3 7 1020.1 1020.1 0.0
24/12:00am 15.7 17.2 14.7 94 0.6 CALM 0 0 0 0 1020.4 1020.4 0.0
 
Date/Time
EDT
Temp
°C
App
Temp
°C
Dew
Point
Rel
Hum
%
Delta-T
°C
Wind Press
QNH
hPa
Press
MSL
hPa
Rain
since 9 am
mm
Dir
 
Spd
km/h
Gust
km/h
Spd
kts
Gust
kts
23/11:30pm 15.7 16.0 14.6 93 0.6 N 6 7 3 4 1020.3 1020.3 0.0
23/11:00pm 17.6 18.5 16.1 91 0.9 NNE 6 7 3 4 1020.2 1020.2 0.0
23/10:30pm 17.1 17.5 15.3 89 1.0 N 7 7 4 4 1020.3 1020.3 0.0
23/10:00pm 18.1 18.7 15.9 87 1.3 N 7 9 4 5 1020.1 1020.1 0.0
23/09:30pm 18.6 18.9 16.0 85 1.5 N 9 13 5 7 1019.9 1019.9 0.0
23/09:00pm 19.5 19.9 16.2 81 2.0 NNE 9 15 5 8 1019.4 1019.4 0.0
23/08:30pm 19.9 18.8 16.3 80 2.2 NNE 17 20 9 11 1019.2 1019.2 0.0
23/08:00pm 20.3 19.1 16.1 77 2.5 N 17 24 9 13 1018.8 1018.8 0.0
23/07:30pm 20.9 20.0 15.9 73 3.0 NNE 15 20 8 11 1018.3 1018.3 0.0
23/07:00pm 21.6 21.1 16.8 74 2.9 NE 15 20 8 11 1017.8 1017.8 0.0
23/06:30pm 23.0 22.8 16.8 68 3.8 NE 13 17 7 9 1017.3 1017.3 0.0
23/06:00pm 23.9 23.8 16.9 65 4.3 NE 13 17 7 9 1016.9 1016.9 0.0
23/05:30pm 24.4 23.5 15.9 59 5.2 NE 15 20 8 11 1016.6 1016.6 0.0
23/05:00pm 24.9 23.0 14.1 51 6.4 NNE 17 20 9 11 1016.4 1016.4 0.0
23/04:30pm 24.7 22.4 14.2 52 6.2 NNE 19 26 10 14 1016.3 1016.3 0.0
23/04:00pm 25.1 23.2 15.1 53 6.0 NE 19 26 10 14 1016.3 1016.3 0.0
23/03:30pm 24.1 21.5 15.9 60 5.0 ENE 24 30 13 16 1016.2 1016.2 0.0
23/03:00pm 24.9 22.0 15.2 54 5.8 ENE 24 32 13 17 1016.3 1016.3 0.0
23/02:30pm 24.8 22.0 14.3 52 6.2 ENE 22 30 12 16 1016.4 1016.4 0.0
23/02:00pm 24.3 21.3 14.7 55 5.7 ENE 24 28 13 15 1016.6 1016.6 0.0
23/01:30pm 24.4 22.0 14.5 54 5.9 ENE 20 26 11 14 1016.9 1016.9 0.0
23/01:00pm 24.3 21.9 15.5 58 5.3 E 22 28 12 15 1017.4 1017.4 0.0
23/12:30pm 24.5 22.7 16.0 59 5.2 ENE 20 26 11 14 1017.9 1017.9 0.0
23/12:00pm 23.4 22.0 15.5 61 4.7 E 17 20 9 11 1018.4 1018.4 0.0
23/11:30am 23.2 21.9 15.8 63 4.5 E 17 20 9 11 1018.6 1018.6 0.0
23/11:00am 23.1 22.5 15.7 63 4.4 E 13 19 7 10 1019.0 1019.0 0.0
23/10:30am 23.0 22.5 13.8 56 5.4 NNE 9 15 5 8 1019.2 1019.2 0.0
23/10:00am 21.4 20.5 13.8 62 4.4 NNE 11 13 6 7 1019.4 1019.4 0.0
23/09:30am 20.2 19.4 14.1 68 3.5 N 11 15 6 8 1019.5 1019.5 0.0
23/09:00am 18.5 18.2 14.4 77 2.4 N 9 13 5 7 1019.8 1019.8 0.2
23/08:30am 16.1 16.0 13.4 84 1.5 NNW 6 9 3 5 1020.1 1020.1 0.2
23/08:00am 14.7 14.4 13.2 91 0.8 NW 7 9 4 5 1020.1 1020.1 0.2
23/07:30am 13.4 12.5 12.6 95 0.4 NNW 9 11 5 6 1020.1 1020.1 0.2
23/07:00am 12.5 11.8 12.0 97 0.3 NW 7 11 4 6 1020.1 1020.1 0.2
23/06:30am 11.5 11.8 10.9 96 0.3 CALM 0 0 0 0 1019.9 1019.9 0.2
23/06:00am 11.1 11.3 10.5 96 0.3 CALM 0 0 0 0 1019.7 1019.7 0.2
23/05:30am 11.2 11.4 10.6 96 0.3 CALM 0 0 0 0 1019.5 1019.5 0.2
23/05:00am 10.8 10.9 10.0 95 0.4 CALM 0 0 0 0 1019.5 1019.5 0.2
23/04:30am 11.5 10.5 10.9 96 0.3 NW 7 9 4 5 1019.6 1019.6 0.2
23/04:00am 11.5 10.4 10.7 95 0.4 NW 7 9 4 5 1019.5 1019.5 0.2
23/03:30am 11.6 10.6 10.3 92 0.7 NNW 6 9 3 5 1019.7 1019.7 0.2
23/03:00am 13.3 12.7 12.2 93 0.6 N 7 9 4 5 1019.9 1019.9 0.2
23/02:30am 13.5 12.5 12.4 93 0.6 N 9 11 5 6 1020.1 1020.1 0.2
23/02:00am 13.4 12.8 12.3 93 0.6 N 7 9 4 5 1020.6 1020.6 0.2
23/01:30am 13.4 12.8 12.3 93 0.6 N 7 11 4 6 1020.9 1020.9 0.2
23/01:00am 13.0 12.3 11.9 93 0.6 N 7 9 4 5 1021.1 1021.1 0.2
23/12:30am 13.1 12.3 11.7 91 0.7 N 7 9 4 5 1021.5 1021.5 0.2
23/12:00am 13.7 12.6 12.1 90 0.9 N 9 9 5 5 1021.8 1021.8 0.2
 
Date/Time
EDT
Temp
°C
App
Temp
°C
Dew
Point
Rel
Hum
%
Delta-T
°C
Wind Press
QNH
hPa
Press
MSL
hPa
Rain
since 9 am
mm
Dir
 
Spd
km/h
Gust
km/h
Spd
kts
Gust
kts
22/11:30pm 14.0 13.7 12.7 92 0.7 N 6 9 3 5 1022.2 1022.2 0.2
22/11:00pm 13.6 13.0 11.8 89 1.0 N 6 7 3 4 1022.4 1022.4 0.2
22/10:30pm 14.3 13.8 12.5 89 1.0 N 7 9 4 5 1022.7 1022.7 0.2
22/10:00pm 14.5 13.9 12.4 87 1.1 N 7 9 4 5 1022.8 1022.8 0.2
22/09:30pm 15.5 14.9 12.4 82 1.7 N 7 9 4 5 1022.9 1022.9 0.2
22/09:00pm 16.6 15.9 13.3 81 1.8 N 9 11 5 6 1023.0 1023.0 0.2
22/08:30pm 17.3 16.4 13.6 79 2.1 N 11 13 6 7 1022.8 1022.8 0.2
22/08:00pm 18.0 16.7 13.7 76 2.4 NNE 13 17 7 9 1022.7 1022.7 0.2
22/07:30pm 18.2 16.4 13.3 73 2.8 NNE 15 20 8 11 1022.5 1022.5 0.2
22/07:00pm 18.6 16.4 13.2 71 3.0 NNE 17 24 9 13 1022.5 1022.5 0.2
22/06:30pm 19.2 16.4 12.7 66 3.6 NE 19 28 10 15 1022.4 1022.4 0.2
22/06:00pm 19.6 16.9 12.8 65 3.8 NE 19 26 10 14 1022.2 1022.2 0.2
22/05:30pm 19.9 16.8 13.4 66 3.7 NE 22 30 12 16 1022.1 1022.1 0.2

Other Formats:

Comma delimited format used in spreadsheet applications
http://www.bom.gov.au/fwo/IDN60801/IDN60801.94786.axf

JavaScript Object Notation format (JSON) in row-major order
http://www.bom.gov.au/fwo/IDN60801/IDN60801.94786.json